sensor_id;sensor_type;location;lat;lon;timestamp;pressure;altitude;pressure_sealevel;temperature
16956;BMP180;8594;52.052;8.354;2023-02-28T00:00:38;102070.00;;;4.80
16956;BMP180;8594;52.052;8.354;2023-02-28T00:03:05;102072.00;;;4.80
16956;BMP180;8594;52.052;8.354;2023-02-28T00:05:33;102065.00;;;4.80
16956;BMP180;8594;52.052;8.354;2023-02-28T00:08:00;102065.00;;;4.90
16956;BMP180;8594;52.052;8.354;2023-02-28T00:10:30;102064.00;;;4.80
16956;BMP180;8594;52.052;8.354;2023-02-28T00:13:01;102061.00;;;4.70
16956;BMP180;8594;52.052;8.354;2023-02-28T00:15:28;102054.00;;;4.90
16956;BMP180;8594;52.052;8.354;2023-02-28T00:17:55;102062.00;;;4.80
16956;BMP180;8594;52.052;8.354;2023-02-28T00:20:22;102053.00;;;4.40
16956;BMP180;8594;52.052;8.354;2023-02-28T00:22:52;102041.00;;;4.10
16956;BMP180;8594;52.052;8.354;2023-02-28T00:25:22;102049.00;;;4.60
16956;BMP180;8594;52.052;8.354;2023-02-28T00:27:51;102048.00;;;4.90
16956;BMP180;8594;52.052;8.354;2023-02-28T00:30:21;102046.00;;;4.50
16956;BMP180;8594;52.052;8.354;2023-02-28T00:32:48;102046.00;;;4.30
16956;BMP180;8594;52.052;8.354;2023-02-28T00:35:15;102038.00;;;4.20
16956;BMP180;8594;52.052;8.354;2023-02-28T00:37:42;102051.00;;;4.30
16956;BMP180;8594;52.052;8.354;2023-02-28T00:40:11;102049.00;;;4.40
16956;BMP180;8594;52.052;8.354;2023-02-28T00:42:38;102049.00;;;4.40
16956;BMP180;8594;52.052;8.354;2023-02-28T00:45:08;102041.00;;;4.60
16956;BMP180;8594;52.052;8.354;2023-02-28T00:47:35;102052.00;;;5.00
16956;BMP180;8594;52.052;8.354;2023-02-28T00:50:03;102045.00;;;5.00
16956;BMP180;8594;52.052;8.354;2023-02-28T00:52:31;102051.00;;;5.00
16956;BMP180;8594;52.052;8.354;2023-02-28T00:54:57;102047.00;;;4.80
16956;BMP180;8594;52.052;8.354;2023-02-28T00:57:24;102050.00;;;4.80
16956;BMP180;8594;52.052;8.354;2023-02-28T00:59:51;102054.00;;;4.80
16956;BMP180;8594;52.052;8.354;2023-02-28T01:02:21;102048.00;;;4.70
16956;BMP180;8594;52.052;8.354;2023-02-28T01:04:48;102057.00;;;4.50
16956;BMP180;8594;52.052;8.354;2023-02-28T01:07:15;102060.00;;;4.30
16956;BMP180;8594;52.052;8.354;2023-02-28T01:09:42;102049.00;;;4.30
16956;BMP180;8594;52.052;8.354;2023-02-28T01:12:09;102060.00;;;4.40
16956;BMP180;8594;52.052;8.354;2023-02-28T01:14:36;102053.00;;;4.30
16956;BMP180;8594;52.052;8.354;2023-02-28T01:17:04;102059.00;;;4.30
16956;BMP180;8594;52.052;8.354;2023-02-28T01:19:33;102064.00;;;4.30
16956;BMP180;8594;52.052;8.354;2023-02-28T01:22:01;102061.00;;;4.40
16956;BMP180;8594;52.052;8.354;2023-02-28T01:24:29;102063.00;;;4.40
16956;BMP180;8594;52.052;8.354;2023-02-28T01:26:56;102069.00;;;4.50
16956;BMP180;8594;52.052;8.354;2023-02-28T01:29:23;102068.00;;;4.40
16956;BMP180;8594;52.052;8.354;2023-02-28T01:31:50;102064.00;;;4.40
16956;BMP180;8594;52.052;8.354;2023-02-28T01:34:16;102055.00;;;4.40
16956;BMP180;8594;52.052;8.354;2023-02-28T01:36:45;102055.00;;;4.50
16956;BMP180;8594;52.052;8.354;2023-02-28T01:39:12;102055.00;;;4.70
16956;BMP180;8594;52.052;8.354;2023-02-28T01:41:39;102052.00;;;4.70
16956;BMP180;8594;52.052;8.354;2023-02-28T01:44:56;102052.00;;;4.70
16956;BMP180;8594;52.052;8.354;2023-02-28T01:47:27;102035.00;;;4.70
16956;BMP180;8594;52.052;8.354;2023-02-28T01:49:56;102049.00;;;4.70
16956;BMP180;8594;52.052;8.354;2023-02-28T01:52:25;102051.00;;;4.80
16956;BMP180;8594;52.052;8.354;2023-02-28T01:54:55;102054.00;;;4.80
16956;BMP180;8594;52.052;8.354;2023-02-28T01:57:28;102050.00;;;4.70
16956;BMP180;8594;52.052;8.354;2023-02-28T02:00:00;102047.00;;;4.60
16956;BMP180;8594;52.052;8.354;2023-02-28T02:02:28;102051.00;;;4.60
16956;BMP180;8594;52.052;8.354;2023-02-28T02:05:00;102048.00;;;4.50
16956;BMP180;8594;52.052;8.354;2023-02-28T02:07:33;102053.00;;;4.50
16956;BMP180;8594;52.052;8.354;2023-02-28T02:10:10;102056.00;;;4.40
16956;BMP180;8594;52.052;8.354;2023-02-28T02:13:08;102055.00;;;4.50
16956;BMP180;8594;52.052;8.354;2023-02-28T02:15:43;102050.00;;;4.30
16956;BMP180;8594;52.052;8.354;2023-02-28T02:18:26;102057.00;;;4.30
16956;BMP180;8594;52.052;8.354;2023-02-28T02:21:28;102043.00;;;4.40
16956;BMP180;8594;52.052;8.354;2023-02-28T02:24:36;102046.00;;;4.20
16956;BMP180;8594;52.052;8.354;2023-02-28T02:27:20;102048.00;;;4.20
16956;BMP180;8594;52.052;8.354;2023-02-28T02:33:40;102040.00;;;4.30
16956;BMP180;8594;52.052;8.354;2023-02-28T02:36:23;102042.00;;;4.20
16956;BMP180;8594;52.052;8.354;2023-02-28T02:38:57;102038.00;;;4.20
16956;BMP180;8594;52.052;8.354;2023-02-28T02:41:34;102036.00;;;4.30
16956;BMP180;8594;52.052;8.354;2023-02-28T02:44:10;102046.00;;;4.20
16956;BMP180;8594;52.052;8.354;2023-02-28T02:46:42;102041.00;;;4.40
16956;BMP180;8594;52.052;8.354;2023-02-28T02:49:15;102040.00;;;4.40
16956;BMP180;8594;52.052;8.354;2023-02-28T02:51:46;102044.00;;;4.50
16956;BMP180;8594;52.052;8.354;2023-02-28T02:54:19;102035.00;;;4.50
16956;BMP180;8594;52.052;8.354;2023-02-28T02:56:49;102052.00;;;4.40
16956;BMP180;8594;52.052;8.354;2023-02-28T02:59:21;102051.00;;;4.40
16956;BMP180;8594;52.052;8.354;2023-02-28T03:01:53;102048.00;;;4.40
16956;BMP180;8594;52.052;8.354;2023-02-28T03:04:24;102053.00;;;4.40
16956;BMP180;8594;52.052;8.354;2023-02-28T03:06:52;102059.00;;;4.50
16956;BMP180;8594;52.052;8.354;2023-02-28T03:09:20;102055.00;;;4.50
16956;BMP180;8594;52.052;8.354;2023-02-28T03:11:48;102054.00;;;4.50
16956;BMP180;8594;52.052;8.354;2023-02-28T03:14:40;102051.00;;;4.50
16956;BMP180;8594;52.052;8.354;2023-02-28T03:17:32;102052.00;;;4.50
16956;BMP180;8594;52.052;8.354;2023-02-28T03:20:15;102054.00;;;4.50
16956;BMP180;8594;52.052;8.354;2023-02-28T03:23:00;102040.00;;;4.60
16956;BMP180;8594;52.052;8.354;2023-02-28T03:25:37;102044.00;;;4.50
16956;BMP180;8594;52.052;8.354;2023-02-28T03:28:14;102042.00;;;4.50
16956;BMP180;8594;52.052;8.354;2023-02-28T03:30:48;102047.00;;;4.50
16956;BMP180;8594;52.052;8.354;2023-02-28T03:33:21;102034.00;;;4.40
16956;BMP180;8594;52.052;8.354;2023-02-28T03:35:54;102038.00;;;4.40
16956;BMP180;8594;52.052;8.354;2023-02-28T03:38:31;102038.00;;;4.40
16956;BMP180;8594;52.052;8.354;2023-02-28T03:41:05;102037.00;;;4.40
16956;BMP180;8594;52.052;8.354;2023-02-28T03:43:38;102041.00;;;4.20
16956;BMP180;8594;52.052;8.354;2023-02-28T03:46:12;102039.00;;;4.30
16956;BMP180;8594;52.052;8.354;2023-02-28T03:48:47;102037.00;;;4.30
16956;BMP180;8594;52.052;8.354;2023-02-28T03:51:19;102040.00;;;4.20
16956;BMP180;8594;52.052;8.354;2023-02-28T03:53:54;102052.00;;;4.20
16956;BMP180;8594;52.052;8.354;2023-02-28T03:56:30;102046.00;;;4.10
16956;BMP180;8594;52.052;8.354;2023-02-28T03:59:04;102040.00;;;3.90
16956;BMP180;8594;52.052;8.354;2023-02-28T04:01:36;102034.00;;;3.90
16956;BMP180;8594;52.052;8.354;2023-02-28T04:04:04;102040.00;;;3.60
16956;BMP180;8594;52.052;8.354;2023-02-28T04:06:33;102044.00;;;3.80
16956;BMP180;8594;52.052;8.354;2023-02-28T04:09:03;102043.00;;;3.80
16956;BMP180;8594;52.052;8.354;2023-02-28T04:11:34;102045.00;;;4.00
16956;BMP180;8594;52.052;8.354;2023-02-28T04:14:02;102047.00;;;3.80
16956;BMP180;8594;52.052;8.354;2023-02-28T04:16:29;102042.00;;;3.90
16956;BMP180;8594;52.052;8.354;2023-02-28T04:18:56;102042.00;;;4.10
16956;BMP180;8594;52.052;8.354;2023-02-28T04:21:27;102048.00;;;4.10
16956;BMP180;8594;52.052;8.354;2023-02-28T04:23:54;102046.00;;;4.10
16956;BMP180;8594;52.052;8.354;2023-02-28T04:26:22;102045.00;;;4.00
16956;BMP180;8594;52.052;8.354;2023-02-28T04:28:49;102046.00;;;3.90
16956;BMP180;8594;52.052;8.354;2023-02-28T04:31:16;102049.00;;;4.00
16956;BMP180;8594;52.052;8.354;2023-02-28T04:33:43;102046.00;;;4.00
16956;BMP180;8594;52.052;8.354;2023-02-28T04:36:10;102044.00;;;3.90
16956;BMP180;8594;52.052;8.354;2023-02-28T04:38:38;102050.00;;;3.80
16956;BMP180;8594;52.052;8.354;2023-02-28T04:41:05;102045.00;;;3.50
16956;BMP180;8594;52.052;8.354;2023-02-28T04:43:33;102045.00;;;3.80
16956;BMP180;8594;52.052;8.354;2023-02-28T04:46:04;102042.00;;;3.80
16956;BMP180;8594;52.052;8.354;2023-02-28T04:48:33;102041.00;;;4.00
16956;BMP180;8594;52.052;8.354;2023-02-28T04:51:01;102048.00;;;4.00
16956;BMP180;8594;52.052;8.354;2023-02-28T04:53:29;102044.00;;;3.80
16956;BMP180;8594;52.052;8.354;2023-02-28T04:55:56;102041.00;;;3.70
16956;BMP180;8594;52.052;8.354;2023-02-28T04:58:30;102048.00;;;3.60
16956;BMP180;8594;52.052;8.354;2023-02-28T05:01:05;102035.00;;;3.60
16956;BMP180;8594;52.052;8.354;2023-02-28T05:03:38;102046.00;;;3.60
16956;BMP180;8594;52.052;8.354;2023-02-28T05:06:06;102046.00;;;3.40
16956;BMP180;8594;52.052;8.354;2023-02-28T05:08:33;102049.00;;;3.60
16956;BMP180;8594;52.052;8.354;2023-02-28T05:11:00;102050.00;;;3.70
16956;BMP180;8594;52.052;8.354;2023-02-28T05:13:28;102047.00;;;3.70
16956;BMP180;8594;52.052;8.354;2023-02-28T05:15:55;102051.00;;;3.60
16956;BMP180;8594;52.052;8.354;2023-02-28T05:18:24;102047.00;;;3.60
16956;BMP180;8594;52.052;8.354;2023-02-28T05:20:50;102059.00;;;3.10
16956;BMP180;8594;52.052;8.354;2023-02-28T05:23:19;102052.00;;;3.60
16956;BMP180;8594;52.052;8.354;2023-02-28T05:25:48;102057.00;;;3.70
16956;BMP180;8594;52.052;8.354;2023-02-28T05:28:14;102063.00;;;3.70
16956;BMP180;8594;52.052;8.354;2023-02-28T05:30:41;102059.00;;;3.50
16956;BMP180;8594;52.052;8.354;2023-02-28T05:33:10;102054.00;;;3.60
16956;BMP180;8594;52.052;8.354;2023-02-28T05:35:40;102060.00;;;3.40
16956;BMP180;8594;52.052;8.354;2023-02-28T05:38:08;102062.00;;;3.50
16956;BMP180;8594;52.052;8.354;2023-02-28T05:40:35;102065.00;;;3.60
16956;BMP180;8594;52.052;8.354;2023-02-28T05:43:04;102069.00;;;3.60
16956;BMP180;8594;52.052;8.354;2023-02-28T05:45:31;102066.00;;;3.60
16956;BMP180;8594;52.052;8.354;2023-02-28T05:47:58;102066.00;;;3.60
16956;BMP180;8594;52.052;8.354;2023-02-28T05:50:24;102065.00;;;3.40
16956;BMP180;8594;52.052;8.354;2023-02-28T05:52:53;102076.00;;;3.20
16956;BMP180;8594;52.052;8.354;2023-02-28T05:55:19;102066.00;;;3.30
16956;BMP180;8594;52.052;8.354;2023-02-28T05:57:46;102060.00;;;3.50
16956;BMP180;8594;52.052;8.354;2023-02-28T06:00:14;102065.00;;;3.40
16956;BMP180;8594;52.052;8.354;2023-02-28T06:02:43;102062.00;;;3.40
16956;BMP180;8594;52.052;8.354;2023-02-28T06:05:14;102070.00;;;3.50
16956;BMP180;8594;52.052;8.354;2023-02-28T06:07:42;102066.00;;;3.50
16956;BMP180;8594;52.052;8.354;2023-02-28T06:10:12;102063.00;;;3.30
16956;BMP180;8594;52.052;8.354;2023-02-28T06:12:39;102070.00;;;3.30
16956;BMP180;8594;52.052;8.354;2023-02-28T06:15:11;102065.00;;;3.50
16956;BMP180;8594;52.052;8.354;2023-02-28T06:17:39;102062.00;;;3.40
16956;BMP180;8594;52.052;8.354;2023-02-28T06:20:09;102070.00;;;3.30
16956;BMP180;8594;52.052;8.354;2023-02-28T06:22:38;102064.00;;;3.30
16956;BMP180;8594;52.052;8.354;2023-02-28T06:25:06;102071.00;;;3.40
16956;BMP180;8594;52.052;8.354;2023-02-28T06:27:35;102061.00;;;3.50
16956;BMP180;8594;52.052;8.354;2023-02-28T06:30:02;102065.00;;;3.50
16956;BMP180;8594;52.052;8.354;2023-02-28T06:32:29;102068.00;;;3.70
16956;BMP180;8594;52.052;8.354;2023-02-28T06:34:55;102067.00;;;3.70
16956;BMP180;8594;52.052;8.354;2023-02-28T06:37:23;102067.00;;;3.70
16956;BMP180;8594;52.052;8.354;2023-02-28T06:39:51;102067.00;;;3.80
16956;BMP180;8594;52.052;8.354;2023-02-28T06:42:18;102071.00;;;3.60
16956;BMP180;8594;52.052;8.354;2023-02-28T06:44:46;102074.00;;;3.70
16956;BMP180;8594;52.052;8.354;2023-02-28T06:47:13;102081.00;;;3.60
16956;BMP180;8594;52.052;8.354;2023-02-28T06:49:40;102076.00;;;3.60
16956;BMP180;8594;52.052;8.354;2023-02-28T06:52:07;102081.00;;;3.70
16956;BMP180;8594;52.052;8.354;2023-02-28T06:54:36;102084.00;;;3.80
16956;BMP180;8594;52.052;8.354;2023-02-28T06:57:03;102076.00;;;3.60
16956;BMP180;8594;52.052;8.354;2023-02-28T06:59:30;102083.00;;;3.90
16956;BMP180;8594;52.052;8.354;2023-02-28T07:01:58;102089.00;;;4.00
16956;BMP180;8594;52.052;8.354;2023-02-28T07:04:25;102083.00;;;4.20
16956;BMP180;8594;52.052;8.354;2023-02-28T07:06:54;102095.00;;;4.20
16956;BMP180;8594;52.052;8.354;2023-02-28T07:09:21;102096.00;;;4.10
16956;BMP180;8594;52.052;8.354;2023-02-28T07:11:48;102099.00;;;4.10
16956;BMP180;8594;52.052;8.354;2023-02-28T07:14:15;102095.00;;;4.10
16956;BMP180;8594;52.052;8.354;2023-02-28T07:16:42;102095.00;;;4.20
16956;BMP180;8594;52.052;8.354;2023-02-28T07:19:12;102104.00;;;4.50
16956;BMP180;8594;52.052;8.354;2023-02-28T07:21:41;102105.00;;;4.60
16956;BMP180;8594;52.052;8.354;2023-02-28T07:24:08;102109.00;;;4.40
16956;BMP180;8594;52.052;8.354;2023-02-28T07:26:36;102111.00;;;4.40
16956;BMP180;8594;52.052;8.354;2023-02-28T07:29:03;102113.00;;;4.20
16956;BMP180;8594;52.052;8.354;2023-02-28T07:31:29;102114.00;;;4.50
16956;BMP180;8594;52.052;8.354;2023-02-28T07:33:56;102107.00;;;4.80
16956;BMP180;8594;52.052;8.354;2023-02-28T07:36:24;102103.00;;;5.30
16956;BMP180;8594;52.052;8.354;2023-02-28T07:38:51;102107.00;;;6.00
16956;BMP180;8594;52.052;8.354;2023-02-28T07:41:21;102107.00;;;7.00
16956;BMP180;8594;52.052;8.354;2023-02-28T07:43:49;102105.00;;;7.10
16956;BMP180;8594;52.052;8.354;2023-02-28T07:46:16;102109.00;;;7.60
16956;BMP180;8594;52.052;8.354;2023-02-28T07:48:45;102122.00;;;7.90
16956;BMP180;8594;52.052;8.354;2023-02-28T07:51:12;102113.00;;;8.10
16956;BMP180;8594;52.052;8.354;2023-02-28T07:53:40;102114.00;;;9.00
16956;BMP180;8594;52.052;8.354;2023-02-28T07:56:07;102116.00;;;9.00
16956;BMP180;8594;52.052;8.354;2023-02-28T07:58:35;102120.00;;;9.20
16956;BMP180;8594;52.052;8.354;2023-02-28T08:01:07;102121.00;;;9.40
16956;BMP180;8594;52.052;8.354;2023-02-28T08:03:35;102121.00;;;9.20
16956;BMP180;8594;52.052;8.354;2023-02-28T08:06:02;102121.00;;;9.30
16956;BMP180;8594;52.052;8.354;2023-02-28T08:08:29;102122.00;;;9.40
16956;BMP180;8594;52.052;8.354;2023-02-28T08:11:00;102118.00;;;9.50
16956;BMP180;8594;52.052;8.354;2023-02-28T08:13:28;102127.00;;;9.50
16956;BMP180;8594;52.052;8.354;2023-02-28T08:15:56;102133.00;;;9.70
16956;BMP180;8594;52.052;8.354;2023-02-28T08:18:24;102130.00;;;9.30
16956;BMP180;8594;52.052;8.354;2023-02-28T08:20:50;102125.00;;;10.10
16956;BMP180;8594;52.052;8.354;2023-02-28T08:23:17;102135.00;;;10.20
16956;BMP180;8594;52.052;8.354;2023-02-28T08:25:44;102125.00;;;10.30
16956;BMP180;8594;52.052;8.354;2023-02-28T08:28:12;102125.00;;;10.50
16956;BMP180;8594;52.052;8.354;2023-02-28T08:30:39;102128.00;;;10.50
16956;BMP180;8594;52.052;8.354;2023-02-28T08:33:06;102133.00;;;10.70
16956;BMP180;8594;52.052;8.354;2023-02-28T08:35:36;102132.00;;;11.00
16956;BMP180;8594;52.052;8.354;2023-02-28T08:38:03;102130.00;;;10.80
16956;BMP180;8594;52.052;8.354;2023-02-28T08:40:29;102122.00;;;10.90
16956;BMP180;8594;52.052;8.354;2023-02-28T08:42:56;102136.00;;;11.00
16956;BMP180;8594;52.052;8.354;2023-02-28T08:45:25;102137.00;;;10.60
16956;BMP180;8594;52.052;8.354;2023-02-28T08:47:53;102129.00;;;10.70
16956;BMP180;8594;52.052;8.354;2023-02-28T08:50:20;102135.00;;;10.80
16956;BMP180;8594;52.052;8.354;2023-02-28T08:52:48;102139.00;;;11.10
16956;BMP180;8594;52.052;8.354;2023-02-28T08:55:15;102132.00;;;11.10
16956;BMP180;8594;52.052;8.354;2023-02-28T08:57:41;102129.00;;;10.70
16956;BMP180;8594;52.052;8.354;2023-02-28T09:00:10;102139.00;;;10.90
16956;BMP180;8594;52.052;8.354;2023-02-28T09:02:40;102141.00;;;10.70
16956;BMP180;8594;52.052;8.354;2023-02-28T09:05:10;102142.00;;;10.70
16956;BMP180;8594;52.052;8.354;2023-02-28T09:07:37;102134.00;;;10.80
16956;BMP180;8594;52.052;8.354;2023-02-28T09:10:04;102150.00;;;10.70
16956;BMP180;8594;52.052;8.354;2023-02-28T09:12:34;102137.00;;;11.30
16956;BMP180;8594;52.052;8.354;2023-02-28T09:15:01;102141.00;;;11.20
16956;BMP180;8594;52.052;8.354;2023-02-28T09:17:29;102133.00;;;11.40
16956;BMP180;8594;52.052;8.354;2023-02-28T09:19:57;102138.00;;;11.20
16956;BMP180;8594;52.052;8.354;2023-02-28T09:22:24;102136.00;;;11.30
16956;BMP180;8594;52.052;8.354;2023-02-28T09:24:51;102141.00;;;11.10
16956;BMP180;8594;52.052;8.354;2023-02-28T09:27:18;102130.00;;;10.90
16956;BMP180;8594;52.052;8.354;2023-02-28T09:29:45;102132.00;;;10.90
16956;BMP180;8594;52.052;8.354;2023-02-28T09:32:12;102140.00;;;11.20
16956;BMP180;8594;52.052;8.354;2023-02-28T09:34:39;102142.00;;;10.90
16956;BMP180;8594;52.052;8.354;2023-02-28T09:37:07;102132.00;;;11.20
16956;BMP180;8594;52.052;8.354;2023-02-28T09:39:34;102143.00;;;10.80
16956;BMP180;8594;52.052;8.354;2023-02-28T09:42:03;102136.00;;;10.40
16956;BMP180;8594;52.052;8.354;2023-02-28T09:44:35;102138.00;;;9.90
16956;BMP180;8594;52.052;8.354;2023-02-28T09:47:14;102156.00;;;10.50
16956;BMP180;8594;52.052;8.354;2023-02-28T09:49:47;102146.00;;;10.40
16956;BMP180;8594;52.052;8.354;2023-02-28T09:52:19;102145.00;;;11.50
16956;BMP180;8594;52.052;8.354;2023-02-28T09:54:46;102152.00;;;12.10
16956;BMP180;8594;52.052;8.354;2023-02-28T09:57:23;102150.00;;;12.30
16956;BMP180;8594;52.052;8.354;2023-02-28T10:00:10;102151.00;;;12.50
16956;BMP180;8594;52.052;8.354;2023-02-28T10:02:53;102160.00;;;12.30
16956;BMP180;8594;52.052;8.354;2023-02-28T10:05:27;102159.00;;;12.50
16956;BMP180;8594;52.052;8.354;2023-02-28T10:08:09;102165.00;;;12.50
16956;BMP180;8594;52.052;8.354;2023-02-28T10:10:42;102171.00;;;12.60
16956;BMP180;8594;52.052;8.354;2023-02-28T10:13:24;102153.00;;;11.90
16956;BMP180;8594;52.052;8.354;2023-02-28T10:15:58;102159.00;;;11.90
16956;BMP180;8594;52.052;8.354;2023-02-28T10:18:30;102154.00;;;11.30
16956;BMP180;8594;52.052;8.354;2023-02-28T10:20:59;102144.00;;;11.30
16956;BMP180;8594;52.052;8.354;2023-02-28T10:23:34;102149.00;;;11.20
16956;BMP180;8594;52.052;8.354;2023-02-28T10:26:12;102149.00;;;12.50
16956;BMP180;8594;52.052;8.354;2023-02-28T10:28:41;102149.00;;;11.60
16956;BMP180;8594;52.052;8.354;2023-02-28T10:31:11;102139.00;;;12.40
16956;BMP180;8594;52.052;8.354;2023-02-28T10:33:42;102141.00;;;12.80
16956;BMP180;8594;52.052;8.354;2023-02-28T10:36:14;102144.00;;;11.90
16956;BMP180;8594;52.052;8.354;2023-02-28T10:38:46;102143.00;;;11.40
16956;BMP180;8594;52.052;8.354;2023-02-28T10:41:16;102135.00;;;11.40
16956;BMP180;8594;52.052;8.354;2023-02-28T10:43:44;102151.00;;;10.80
16956;BMP180;8594;52.052;8.354;2023-02-28T10:46:16;102136.00;;;11.10
16956;BMP180;8594;52.052;8.354;2023-02-28T10:49:05;102145.00;;;10.50
16956;BMP180;8594;52.052;8.354;2023-02-28T10:51:38;102149.00;;;9.60
16956;BMP180;8594;52.052;8.354;2023-02-28T10:54:18;102138.00;;;9.40
16956;BMP180;8594;52.052;8.354;2023-02-28T10:56:45;102140.00;;;9.50
16956;BMP180;8594;52.052;8.354;2023-02-28T10:59:29;102153.00;;;9.10
16956;BMP180;8594;52.052;8.354;2023-02-28T11:01:57;102149.00;;;8.30
16956;BMP180;8594;52.052;8.354;2023-02-28T11:04:36;102144.00;;;7.40
16956;BMP180;8594;52.052;8.354;2023-02-28T11:07:17;102139.00;;;7.80
16956;BMP180;8594;52.052;8.354;2023-02-28T11:09:50;102122.00;;;8.40
16956;BMP180;8594;52.052;8.354;2023-02-28T11:12:23;102121.00;;;8.70
16956;BMP180;8594;52.052;8.354;2023-02-28T11:14:53;102119.00;;;9.00
16956;BMP180;8594;52.052;8.354;2023-02-28T11:17:26;102115.00;;;8.80
16956;BMP180;8594;52.052;8.354;2023-02-28T11:19:56;102114.00;;;9.90
16956;BMP180;8594;52.052;8.354;2023-02-28T11:22:28;102117.00;;;9.40
16956;BMP180;8594;52.052;8.354;2023-02-28T11:25:01;102118.00;;;9.50
16956;BMP180;8594;52.052;8.354;2023-02-28T11:27:47;102117.00;;;9.60
16956;BMP180;8594;52.052;8.354;2023-02-28T11:30:30;102120.00;;;9.80
16956;BMP180;8594;52.052;8.354;2023-02-28T11:32:58;102125.00;;;10.20
16956;BMP180;8594;52.052;8.354;2023-02-28T11:35:30;102117.00;;;10.30
16956;BMP180;8594;52.052;8.354;2023-02-28T11:37:58;102118.00;;;10.20
16956;BMP180;8594;52.052;8.354;2023-02-28T11:40:40;102111.00;;;10.40
16956;BMP180;8594;52.052;8.354;2023-02-28T11:43:24;102114.00;;;9.20
16956;BMP180;8594;52.052;8.354;2023-02-28T11:46:10;102111.00;;;9.40
16956;BMP180;8594;52.052;8.354;2023-02-28T11:48:51;102096.00;;;9.10
16956;BMP180;8594;52.052;8.354;2023-02-28T11:51:26;102111.00;;;8.70
16956;BMP180;8594;52.052;8.354;2023-02-28T11:54:23;102102.00;;;9.10
16956;BMP180;8594;52.052;8.354;2023-02-28T11:57:06;102101.00;;;9.30
16956;BMP180;8594;52.052;8.354;2023-02-28T11:59:50;102096.00;;;8.80
16956;BMP180;8594;52.052;8.354;2023-02-28T12:02:28;102101.00;;;9.00
16956;BMP180;8594;52.052;8.354;2023-02-28T12:05:21;102094.00;;;8.70
16956;BMP180;8594;52.052;8.354;2023-02-28T12:08:04;102077.00;;;9.30
16956;BMP180;8594;52.052;8.354;2023-02-28T12:10:42;102090.00;;;9.50
16956;BMP180;8594;52.052;8.354;2023-02-28T12:13:21;102078.00;;;9.40
16956;BMP180;8594;52.052;8.354;2023-02-28T12:19:13;102074.00;;;10.10
16956;BMP180;8594;52.052;8.354;2023-02-28T12:22:06;102066.00;;;10.30
16956;BMP180;8594;52.052;8.354;2023-02-28T12:24:58;102071.00;;;10.30
16956;BMP180;8594;52.052;8.354;2023-02-28T12:27:32;102070.00;;;10.60
16956;BMP180;8594;52.052;8.354;2023-02-28T12:30:13;102063.00;;;10.20
16956;BMP180;8594;52.052;8.354;2023-02-28T12:32:48;102069.00;;;9.80
16956;BMP180;8594;52.052;8.354;2023-02-28T12:35:25;102068.00;;;10.00
16956;BMP180;8594;52.052;8.354;2023-02-28T12:38:01;102042.00;;;10.50
16956;BMP180;8594;52.052;8.354;2023-02-28T12:40:42;102055.00;;;9.70
16956;BMP180;8594;52.052;8.354;2023-02-28T12:43:13;102061.00;;;9.40
16956;BMP180;8594;52.052;8.354;2023-02-28T12:45:48;102047.00;;;8.80
16956;BMP180;8594;52.052;8.354;2023-02-28T12:48:25;102046.00;;;9.40
16956;BMP180;8594;52.052;8.354;2023-02-28T12:50:54;102042.00;;;9.10
16956;BMP180;8594;52.052;8.354;2023-02-28T12:53:28;102033.00;;;9.10
16956;BMP180;8594;52.052;8.354;2023-02-28T12:56:13;102036.00;;;9.50
16956;BMP180;8594;52.052;8.354;2023-02-28T12:58:45;102036.00;;;9.40
16956;BMP180;8594;52.052;8.354;2023-02-28T13:01:51;102036.00;;;10.10
16956;BMP180;8594;52.052;8.354;2023-02-28T13:04:45;102029.00;;;9.20
16956;BMP180;8594;52.052;8.354;2023-02-28T13:07:53;102021.00;;;9.30
16956;BMP180;8594;52.052;8.354;2023-02-28T13:10:38;102027.00;;;9.60
16956;BMP180;8594;52.052;8.354;2023-02-28T13:13:05;102025.00;;;9.40
16956;BMP180;8594;52.052;8.354;2023-02-28T13:15:33;102013.00;;;9.20
16956;BMP180;8594;52.052;8.354;2023-02-28T13:18:05;102007.00;;;9.20
16956;BMP180;8594;52.052;8.354;2023-02-28T13:20:36;102011.00;;;9.90
16956;BMP180;8594;52.052;8.354;2023-02-28T13:23:03;102015.00;;;9.60
16956;BMP180;8594;52.052;8.354;2023-02-28T13:25:52;102016.00;;;9.30
16956;BMP180;8594;52.052;8.354;2023-02-28T13:29:21;102020.00;;;9.20
16956;BMP180;8594;52.052;8.354;2023-02-28T13:32:32;102006.00;;;9.60
16956;BMP180;8594;52.052;8.354;2023-02-28T13:35:44;102012.00;;;9.30
16956;BMP180;8594;52.052;8.354;2023-02-28T13:38:34;102005.00;;;9.60
16956;BMP180;8594;52.052;8.354;2023-02-28T13:41:43;102012.00;;;9.10
16956;BMP180;8594;52.052;8.354;2023-02-28T13:44:12;102007.00;;;9.00
16956;BMP180;8594;52.052;8.354;2023-02-28T13:50:28;102006.00;;;8.50
16956;BMP180;8594;52.052;8.354;2023-02-28T13:53:36;102002.00;;;8.30
16956;BMP180;8594;52.052;8.354;2023-02-28T13:56:22;102006.00;;;8.30
16956;BMP180;8594;52.052;8.354;2023-02-28T13:58:55;102003.00;;;8.40
16956;BMP180;8594;52.052;8.354;2023-02-28T14:01:47;102005.00;;;8.70
16956;BMP180;8594;52.052;8.354;2023-02-28T14:04:48;102002.00;;;9.00
16956;BMP180;8594;52.052;8.354;2023-02-28T14:07:23;102002.00;;;9.20
16956;BMP180;8594;52.052;8.354;2023-02-28T14:10:02;102005.00;;;8.80
16956;BMP180;8594;52.052;8.354;2023-02-28T14:13:02;102005.00;;;8.80
16956;BMP180;8594;52.052;8.354;2023-02-28T14:15:49;101996.00;;;8.30
16956;BMP180;8594;52.052;8.354;2023-02-28T14:18:25;102000.00;;;8.00
16956;BMP180;8594;52.052;8.354;2023-02-28T14:20:58;101998.00;;;8.50
16956;BMP180;8594;52.052;8.354;2023-02-28T14:27:17;101993.00;;;9.00
16956;BMP180;8594;52.052;8.354;2023-02-28T14:30:40;101994.00;;;8.50
16956;BMP180;8594;52.052;8.354;2023-02-28T14:33:23;101988.00;;;8.80
16956;BMP180;8594;52.052;8.354;2023-02-28T14:36:06;101983.00;;;8.50
16956;BMP180;8594;52.052;8.354;2023-02-28T14:38:41;101988.00;;;9.10
16956;BMP180;8594;52.052;8.354;2023-02-28T14:41:19;101992.00;;;8.60
16956;BMP180;8594;52.052;8.354;2023-02-28T14:43:56;101987.00;;;8.40
16956;BMP180;8594;52.052;8.354;2023-02-28T14:46:28;101984.00;;;8.60
16956;BMP180;8594;52.052;8.354;2023-02-28T14:48:56;101974.00;;;8.70
16956;BMP180;8594;52.052;8.354;2023-02-28T14:51:24;101975.00;;;8.50
16956;BMP180;8594;52.052;8.354;2023-02-28T14:53:58;101974.00;;;8.40
16956;BMP180;8594;52.052;8.354;2023-02-28T14:56:32;101977.00;;;8.20
16956;BMP180;8594;52.052;8.354;2023-02-28T14:59:01;101979.00;;;8.50
16956;BMP180;8594;52.052;8.354;2023-02-28T15:01:28;101979.00;;;8.30
16956;BMP180;8594;52.052;8.354;2023-02-28T15:04:01;101973.00;;;8.50
16956;BMP180;8594;52.052;8.354;2023-02-28T15:06:28;101978.00;;;8.40